sensor_id;sensor_type;location;lat;lon;timestamp;P1;durP1;ratioP1;P2;durP2;ratioP2
78298;SDS011;67556;55.656;12.590;2023-03-23T00:00:54;18.13;;;11.38;;
78298;SDS011;67556;55.656;12.590;2023-03-23T00:03:21;18.70;;;11.40;;
78298;SDS011;67556;55.656;12.590;2023-03-23T00:05:50;16.73;;;11.18;;
78298;SDS011;67556;55.656;12.590;2023-03-23T00:08:18;15.75;;;11.07;;
78298;SDS011;67556;55.656;12.590;2023-03-23T00:10:49;18.63;;;12.55;;
78298;SDS011;67556;55.656;12.590;2023-03-23T00:13:17;18.70;;;11.23;;
78298;SDS011;67556;55.656;12.590;2023-03-23T00:15:45;18.50;;;12.02;;
78298;SDS011;67556;55.656;12.590;2023-03-23T00:18:14;17.85;;;11.95;;
78298;SDS011;67556;55.656;12.590;2023-03-23T00:20:47;17.40;;;11.07;;
78298;SDS011;67556;55.656;12.590;2023-03-23T00:23:15;18.35;;;12.27;;
78298;SDS011;67556;55.656;12.590;2023-03-23T00:25:44;17.02;;;11.55;;
78298;SDS011;67556;55.656;12.590;2023-03-23T00:28:13;17.10;;;11.30;;
78298;SDS011;67556;55.656;12.590;2023-03-23T00:30:40;15.70;;;10.93;;
78298;SDS011;67556;55.656;12.590;2023-03-23T00:33:09;17.63;;;11.63;;
78298;SDS011;67556;55.656;12.590;2023-03-23T00:35:37;17.55;;;12.48;;
78298;SDS011;67556;55.656;12.590;2023-03-23T00:38:04;18.02;;;12.02;;
78298;SDS011;67556;55.656;12.590;2023-03-23T00:40:31;17.58;;;12.80;;
78298;SDS011;67556;55.656;12.590;2023-03-23T00:43:00;19.30;;;12.18;;
78298;SDS011;67556;55.656;12.590;2023-03-23T00:45:29;18.55;;;12.52;;
78298;SDS011;67556;55.656;12.590;2023-03-23T00:47:57;19.13;;;12.70;;
78298;SDS011;67556;55.656;12.590;2023-03-23T00:50:26;19.55;;;11.65;;
78298;SDS011;67556;55.656;12.590;2023-03-23T00:52:53;23.00;;;12.57;;
78298;SDS011;67556;55.656;12.590;2023-03-23T00:55:21;18.63;;;12.93;;
78298;SDS011;67556;55.656;12.590;2023-03-23T00:57:48;20.42;;;13.43;;
78298;SDS011;67556;55.656;12.590;2023-03-23T01:00:17;19.00;;;13.65;;
78298;SDS011;67556;55.656;12.590;2023-03-23T01:02:47;19.38;;;12.77;;
78298;SDS011;67556;55.656;12.590;2023-03-23T01:05:16;21.88;;;13.82;;
78298;SDS011;67556;55.656;12.590;2023-03-23T01:07:43;21.73;;;13.25;;
78298;SDS011;67556;55.656;12.590;2023-03-23T01:10:10;21.83;;;13.50;;
78298;SDS011;67556;55.656;12.590;2023-03-23T01:12:41;20.67;;;12.80;;
78298;SDS011;67556;55.656;12.590;2023-03-23T01:15:08;18.75;;;12.80;;
78298;SDS011;67556;55.656;12.590;2023-03-23T01:17:35;19.40;;;13.50;;
78298;SDS011;67556;55.656;12.590;2023-03-23T01:20:03;20.77;;;13.38;;
78298;SDS011;67556;55.656;12.590;2023-03-23T01:22:31;18.75;;;12.57;;
78298;SDS011;67556;55.656;12.590;2023-03-23T01:24:58;20.98;;;12.90;;
78298;SDS011;67556;55.656;12.590;2023-03-23T01:27:30;21.25;;;13.95;;
78298;SDS011;67556;55.656;12.590;2023-03-23T01:29:57;20.98;;;13.95;;
78298;SDS011;67556;55.656;12.590;2023-03-23T01:32:23;25.00;;;14.32;;
78298;SDS011;67556;55.656;12.590;2023-03-23T01:34:50;21.83;;;13.43;;
78298;SDS011;67556;55.656;12.590;2023-03-23T01:37:17;21.60;;;13.60;;
78298;SDS011;67556;55.656;12.590;2023-03-23T01:39:44;22.35;;;13.65;;
78298;SDS011;67556;55.656;12.590;2023-03-23T01:42:11;24.00;;;13.55;;
78298;SDS011;67556;55.656;12.590;2023-03-23T01:47:41;24.75;;;14.48;;
78298;SDS011;67556;55.656;12.590;2023-03-23T01:50:10;22.58;;;14.55;;
78298;SDS011;67556;55.656;12.590;2023-03-23T01:52:38;26.20;;;15.50;;
78298;SDS011;67556;55.656;12.590;2023-03-23T01:55:08;24.92;;;14.32;;
78298;SDS011;67556;55.656;12.590;2023-03-23T01:57:35;27.85;;;15.35;;
78298;SDS011;67556;55.656;12.590;2023-03-23T02:00:08;26.95;;;15.57;;
78298;SDS011;67556;55.656;12.590;2023-03-23T02:02:40;27.02;;;15.93;;
78298;SDS011;67556;55.656;12.590;2023-03-23T02:05:10;26.33;;;15.48;;
78298;SDS011;67556;55.656;12.590;2023-03-23T02:07:41;32.10;;;17.17;;
78298;SDS011;67556;55.656;12.590;2023-03-23T02:10:08;29.90;;;16.20;;
78298;SDS011;67556;55.656;12.590;2023-03-23T02:12:35;29.83;;;17.38;;
78298;SDS011;67556;55.656;12.590;2023-03-23T02:15:02;27.35;;;15.32;;
78298;SDS011;67556;55.656;12.590;2023-03-23T02:17:31;28.80;;;16.77;;
78298;SDS011;67556;55.656;12.590;2023-03-23T02:20:10;27.38;;;15.18;;
78298;SDS011;67556;55.656;12.590;2023-03-23T02:22:54;25.20;;;14.35;;
78298;SDS011;67556;55.656;12.590;2023-03-23T02:26:02;28.73;;;15.32;;
78298;SDS011;67556;55.656;12.590;2023-03-23T02:28:44;27.83;;;14.95;;
78298;SDS011;67556;55.656;12.590;2023-03-23T02:31:29;26.02;;;14.43;;
78298;SDS011;67556;55.656;12.590;2023-03-23T02:34:08;25.95;;;14.73;;
78298;SDS011;67556;55.656;12.590;2023-03-23T02:36:46;24.85;;;15.02;;
78298;SDS011;67556;55.656;12.590;2023-03-23T02:39:18;25.33;;;14.43;;
78298;SDS011;67556;55.656;12.590;2023-03-23T02:41:51;27.25;;;16.20;;
78298;SDS011;67556;55.656;12.590;2023-03-23T02:44:23;28.48;;;15.55;;
78298;SDS011;67556;55.656;12.590;2023-03-23T02:46:54;26.23;;;15.68;;
78298;SDS011;67556;55.656;12.590;2023-03-23T02:49:25;26.88;;;15.10;;
78298;SDS011;67556;55.656;12.590;2023-03-23T02:51:56;28.92;;;15.15;;
78298;SDS011;67556;55.656;12.590;2023-03-23T02:54:25;27.00;;;15.32;;
78298;SDS011;67556;55.656;12.590;2023-03-23T02:56:53;27.13;;;15.45;;
78298;SDS011;67556;55.656;12.590;2023-03-23T02:59:22;23.52;;;15.73;;
78298;SDS011;67556;55.656;12.590;2023-03-23T03:01:53;29.92;;;16.20;;
78298;SDS011;67556;55.656;12.590;2023-03-23T03:04:26;27.33;;;15.70;;
78298;SDS011;67556;55.656;12.590;2023-03-23T03:06:57;30.02;;;16.40;;
78298;SDS011;67556;55.656;12.590;2023-03-23T03:09:50;28.15;;;15.93;;
78298;SDS011;67556;55.656;12.590;2023-03-23T03:12:23;25.90;;;15.00;;
78298;SDS011;67556;55.656;12.590;2023-03-23T03:14:57;28.88;;;17.08;;
78298;SDS011;67556;55.656;12.590;2023-03-23T03:17:28;27.75;;;14.43;;
78298;SDS011;67556;55.656;12.590;2023-03-23T03:19:58;29.60;;;15.85;;
78298;SDS011;67556;55.656;12.590;2023-03-23T03:22:32;27.17;;;15.15;;
78298;SDS011;67556;55.656;12.590;2023-03-23T03:25:02;25.35;;;15.43;;
78298;SDS011;67556;55.656;12.590;2023-03-23T03:27:31;25.80;;;15.02;;
78298;SDS011;67556;55.656;12.590;2023-03-23T03:29:59;29.80;;;15.50;;
78298;SDS011;67556;55.656;12.590;2023-03-23T03:32:31;24.80;;;15.40;;
78298;SDS011;67556;55.656;12.590;2023-03-23T03:35:05;25.02;;;15.00;;
78298;SDS011;67556;55.656;12.590;2023-03-23T03:37:33;27.73;;;15.75;;
78298;SDS011;67556;55.656;12.590;2023-03-23T03:40:02;27.17;;;14.63;;
78298;SDS011;67556;55.656;12.590;2023-03-23T03:42:35;26.42;;;15.82;;
78298;SDS011;67556;55.656;12.590;2023-03-23T03:45:02;30.05;;;15.60;;
78298;SDS011;67556;55.656;12.590;2023-03-23T03:47:29;28.80;;;17.55;;
78298;SDS011;67556;55.656;12.590;2023-03-23T03:49:55;27.83;;;15.45;;
78298;SDS011;67556;55.656;12.590;2023-03-23T03:52:23;27.75;;;15.68;;
78298;SDS011;67556;55.656;12.590;2023-03-23T03:54:49;26.48;;;16.23;;
78298;SDS011;67556;55.656;12.590;2023-03-23T03:57:16;24.88;;;15.75;;
78298;SDS011;67556;55.656;12.590;2023-03-23T03:59:43;28.08;;;16.40;;
78298;SDS011;67556;55.656;12.590;2023-03-23T04:02:10;26.02;;;15.85;;
78298;SDS011;67556;55.656;12.590;2023-03-23T04:04:40;27.33;;;15.70;;
78298;SDS011;67556;55.656;12.590;2023-03-23T04:07:06;27.58;;;15.27;;
78298;SDS011;67556;55.656;12.590;2023-03-23T04:09:37;23.55;;;15.07;;
78298;SDS011;67556;55.656;12.590;2023-03-23T04:12:05;27.85;;;15.77;;
78298;SDS011;67556;55.656;12.590;2023-03-23T04:14:32;25.85;;;16.52;;
78298;SDS011;67556;55.656;12.590;2023-03-23T04:16:58;27.77;;;14.95;;
78298;SDS011;67556;55.656;12.590;2023-03-23T04:19:25;26.95;;;14.90;;
78298;SDS011;67556;55.656;12.590;2023-03-23T04:21:53;25.63;;;14.60;;
78298;SDS011;67556;55.656;12.590;2023-03-23T04:24:20;25.27;;;14.40;;
78298;SDS011;67556;55.656;12.590;2023-03-23T04:26:50;22.65;;;14.52;;
78298;SDS011;67556;55.656;12.590;2023-03-23T04:29:17;26.02;;;14.95;;
78298;SDS011;67556;55.656;12.590;2023-03-23T04:31:44;26.02;;;15.35;;
78298;SDS011;67556;55.656;12.590;2023-03-23T04:34:11;26.35;;;14.35;;
78298;SDS011;67556;55.656;12.590;2023-03-23T04:36:38;25.90;;;15.18;;
78298;SDS011;67556;55.656;12.590;2023-03-23T04:39:06;25.92;;;15.27;;
78298;SDS011;67556;55.656;12.590;2023-03-23T04:41:35;27.17;;;15.15;;
78298;SDS011;67556;55.656;12.590;2023-03-23T04:44:03;24.75;;;13.75;;
78298;SDS011;67556;55.656;12.590;2023-03-23T04:46:30;23.73;;;14.43;;
78298;SDS011;67556;55.656;12.590;2023-03-23T04:48:57;29.33;;;15.65;;
78298;SDS011;67556;55.656;12.590;2023-03-23T04:51:24;27.23;;;14.45;;
78298;SDS011;67556;55.656;12.590;2023-03-23T04:53:51;32.67;;;15.80;;
78298;SDS011;67556;55.656;12.590;2023-03-23T04:56:18;28.10;;;14.43;;
78298;SDS011;67556;55.656;12.590;2023-03-23T04:58:44;24.77;;;14.55;;
78298;SDS011;67556;55.656;12.590;2023-03-23T05:01:13;26.02;;;13.90;;
78298;SDS011;67556;55.656;12.590;2023-03-23T05:03:39;27.35;;;15.15;;
78298;SDS011;67556;55.656;12.590;2023-03-23T05:06:06;30.23;;;14.70;;
78298;SDS011;67556;55.656;12.590;2023-03-23T05:08:34;24.35;;;14.63;;
78298;SDS011;67556;55.656;12.590;2023-03-23T05:11:03;24.92;;;13.98;;
78298;SDS011;67556;55.656;12.590;2023-03-23T05:13:31;25.75;;;15.13;;
78298;SDS011;67556;55.656;12.590;2023-03-23T05:16:02;25.58;;;14.20;;
78298;SDS011;67556;55.656;12.590;2023-03-23T05:18:31;26.52;;;14.88;;
78298;SDS011;67556;55.656;12.590;2023-03-23T05:20:59;24.90;;;14.82;;
78298;SDS011;67556;55.656;12.590;2023-03-23T05:23:26;22.15;;;13.43;;
78298;SDS011;67556;55.656;12.590;2023-03-23T05:25:53;22.70;;;14.38;;
78298;SDS011;67556;55.656;12.590;2023-03-23T05:28:20;24.05;;;13.85;;
78298;SDS011;67556;55.656;12.590;2023-03-23T05:30:48;24.08;;;14.20;;
78298;SDS011;67556;55.656;12.590;2023-03-23T05:33:14;25.98;;;14.35;;
78298;SDS011;67556;55.656;12.590;2023-03-23T05:35:42;25.50;;;14.30;;
78298;SDS011;67556;55.656;12.590;2023-03-23T05:38:09;26.38;;;14.02;;
78298;SDS011;67556;55.656;12.590;2023-03-23T05:40:36;24.00;;;14.57;;
78298;SDS011;67556;55.656;12.590;2023-03-23T05:43:03;19.92;;;13.27;;
78298;SDS011;67556;55.656;12.590;2023-03-23T05:45:30;25.42;;;14.23;;
78298;SDS011;67556;55.656;12.590;2023-03-23T05:47:56;20.63;;;12.00;;
78298;SDS011;67556;55.656;12.590;2023-03-23T05:50:23;20.17;;;11.98;;
78298;SDS011;67556;55.656;12.590;2023-03-23T05:52:50;17.85;;;10.68;;
78298;SDS011;67556;55.656;12.590;2023-03-23T05:55:17;16.20;;;10.20;;
78298;SDS011;67556;55.656;12.590;2023-03-23T05:57:43;16.40;;;9.20;;
78298;SDS011;67556;55.656;12.590;2023-03-23T06:00:10;16.20;;;8.98;;
78298;SDS011;67556;55.656;12.590;2023-03-23T06:02:45;13.38;;;9.10;;
78298;SDS011;67556;55.656;12.590;2023-03-23T06:05:13;14.85;;;9.73;;
78298;SDS011;67556;55.656;12.590;2023-03-23T06:07:40;13.55;;;7.97;;
78298;SDS011;67556;55.656;12.590;2023-03-23T06:10:09;11.15;;;7.10;;
78298;SDS011;67556;55.656;12.590;2023-03-23T06:12:36;12.65;;;7.93;;
78298;SDS011;67556;55.656;12.590;2023-03-23T06:15:04;13.25;;;8.88;;
78298;SDS011;67556;55.656;12.590;2023-03-23T06:17:31;11.80;;;7.53;;
78298;SDS011;67556;55.656;12.590;2023-03-23T06:19:59;11.35;;;6.88;;
78298;SDS011;67556;55.656;12.590;2023-03-23T06:22:26;10.85;;;7.57;;
78298;SDS011;67556;55.656;12.590;2023-03-23T06:24:54;11.20;;;6.45;;
78298;SDS011;67556;55.656;12.590;2023-03-23T06:27:25;9.63;;;5.95;;
78298;SDS011;67556;55.656;12.590;2023-03-23T06:29:57;11.82;;;6.53;;
78298;SDS011;67556;55.656;12.590;2023-03-23T06:32:24;8.30;;;5.35;;
78298;SDS011;67556;55.656;12.590;2023-03-23T06:34:54;9.70;;;6.00;;
78298;SDS011;67556;55.656;12.590;2023-03-23T06:37:23;8.35;;;5.30;;
78298;SDS011;67556;55.656;12.590;2023-03-23T06:39:49;8.02;;;4.95;;
78298;SDS011;67556;55.656;12.590;2023-03-23T06:42:17;6.75;;;4.55;;
78298;SDS011;67556;55.656;12.590;2023-03-23T06:44:44;6.63;;;4.45;;
78298;SDS011;67556;55.656;12.590;2023-03-23T06:47:11;9.23;;;4.65;;
78298;SDS011;67556;55.656;12.590;2023-03-23T06:49:37;8.55;;;4.13;;
78298;SDS011;67556;55.656;12.590;2023-03-23T06:52:04;7.35;;;4.93;;
78298;SDS011;67556;55.656;12.590;2023-03-23T06:54:31;7.28;;;4.60;;
78298;SDS011;67556;55.656;12.590;2023-03-23T06:56:59;6.25;;;3.72;;
78298;SDS011;67556;55.656;12.590;2023-03-23T06:59:26;6.60;;;3.45;;
78298;SDS011;67556;55.656;12.590;2023-03-23T07:01:53;7.05;;;4.03;;
78298;SDS011;67556;55.656;12.590;2023-03-23T07:04:20;4.82;;;3.63;;
78298;SDS011;67556;55.656;12.590;2023-03-23T07:06:48;5.30;;;3.90;;
78298;SDS011;67556;55.656;12.590;2023-03-23T07:09:15;5.35;;;3.55;;
78298;SDS011;67556;55.656;12.590;2023-03-23T07:11:42;4.68;;;3.10;;
78298;SDS011;67556;55.656;12.590;2023-03-23T07:14:08;3.58;;;2.90;;
78298;SDS011;67556;55.656;12.590;2023-03-23T07:16:35;5.43;;;2.80;;
78298;SDS011;67556;55.656;12.590;2023-03-23T07:19:06;4.03;;;2.75;;
78298;SDS011;67556;55.656;12.590;2023-03-23T07:21:32;3.58;;;2.40;;
78298;SDS011;67556;55.656;12.590;2023-03-23T07:23:59;4.50;;;3.22;;
78298;SDS011;67556;55.656;12.590;2023-03-23T07:26:26;3.67;;;2.95;;
78298;SDS011;67556;55.656;12.590;2023-03-23T07:28:52;5.07;;;2.67;;
78298;SDS011;67556;55.656;12.590;2023-03-23T07:31:19;6.72;;;3.03;;
78298;SDS011;67556;55.656;12.590;2023-03-23T07:33:46;4.63;;;2.80;;
78298;SDS011;67556;55.656;12.590;2023-03-23T07:36:14;3.28;;;2.30;;
78298;SDS011;67556;55.656;12.590;2023-03-23T07:38:41;5.30;;;2.40;;
78298;SDS011;67556;55.656;12.590;2023-03-23T07:41:09;4.90;;;2.65;;
78298;SDS011;67556;55.656;12.590;2023-03-23T07:43:35;4.47;;;2.30;;
78298;SDS011;67556;55.656;12.590;2023-03-23T07:46:01;4.45;;;2.70;;
78298;SDS011;67556;55.656;12.590;2023-03-23T07:48:28;5.55;;;2.45;;
78298;SDS011;67556;55.656;12.590;2023-03-23T07:50:56;3.72;;;2.80;;
78298;SDS011;67556;55.656;12.590;2023-03-23T07:53:26;3.17;;;2.38;;
78298;SDS011;67556;55.656;12.590;2023-03-23T07:55:52;3.70;;;2.00;;
78298;SDS011;67556;55.656;12.590;2023-03-23T07:58:19;3.80;;;2.50;;
78298;SDS011;67556;55.656;12.590;2023-03-23T08:00:46;2.80;;;2.13;;
78298;SDS011;67556;55.656;12.590;2023-03-23T08:03:14;2.85;;;2.00;;
78298;SDS011;67556;55.656;12.590;2023-03-23T08:05:46;2.17;;;1.75;;
78298;SDS011;67556;55.656;12.590;2023-03-23T08:08:13;2.63;;;2.10;;
78298;SDS011;67556;55.656;12.590;2023-03-23T08:10:41;3.40;;;2.30;;
78298;SDS011;67556;55.656;12.590;2023-03-23T08:13:07;4.00;;;2.28;;
78298;SDS011;67556;55.656;12.590;2023-03-23T08:15:35;3.15;;;1.90;;
78298;SDS011;67556;55.656;12.590;2023-03-23T08:18:02;3.88;;;1.80;;
78298;SDS011;67556;55.656;12.590;2023-03-23T08:20:31;2.83;;;2.25;;
78298;SDS011;67556;55.656;12.590;2023-03-23T08:22:58;3.63;;;2.00;;
78298;SDS011;67556;55.656;12.590;2023-03-23T08:25:27;2.65;;;1.70;;
78298;SDS011;67556;55.656;12.590;2023-03-23T08:27:57;4.20;;;2.10;;
78298;SDS011;67556;55.656;12.590;2023-03-23T08:30:26;2.08;;;1.70;;
78298;SDS011;67556;55.656;12.590;2023-03-23T08:32:55;4.50;;;1.80;;
78298;SDS011;67556;55.656;12.590;2023-03-23T08:35:22;2.47;;;1.80;;
78298;SDS011;67556;55.656;12.590;2023-03-23T08:37:49;3.05;;;2.03;;
78298;SDS011;67556;55.656;12.590;2023-03-23T08:40:18;2.72;;;1.73;;
78298;SDS011;67556;55.656;12.590;2023-03-23T08:42:46;2.28;;;1.95;;
78298;SDS011;67556;55.656;12.590;2023-03-23T08:45:16;3.22;;;1.77;;
78298;SDS011;67556;55.656;12.590;2023-03-23T08:47:45;3.10;;;2.00;;
78298;SDS011;67556;55.656;12.590;2023-03-23T08:50:15;3.50;;;1.85;;
78298;SDS011;67556;55.656;12.590;2023-03-23T08:52:43;2.45;;;1.80;;
78298;SDS011;67556;55.656;12.590;2023-03-23T08:55:09;2.15;;;1.70;;
78298;SDS011;67556;55.656;12.590;2023-03-23T08:57:40;4.65;;;2.42;;
78298;SDS011;67556;55.656;12.590;2023-03-23T09:00:10;4.20;;;2.53;;
78298;SDS011;67556;55.656;12.590;2023-03-23T09:02:43;3.45;;;2.28;;
78298;SDS011;67556;55.656;12.590;2023-03-23T09:05:12;4.95;;;2.33;;
78298;SDS011;67556;55.656;12.590;2023-03-23T09:07:40;5.63;;;2.50;;
78298;SDS011;67556;55.656;12.590;2023-03-23T09:10:08;3.80;;;2.60;;
78298;SDS011;67556;55.656;12.590;2023-03-23T09:12:35;3.25;;;2.40;;
78298;SDS011;67556;55.656;12.590;2023-03-23T09:15:03;2.92;;;2.35;;
78298;SDS011;67556;55.656;12.590;2023-03-23T09:17:33;4.07;;;2.53;;
78298;SDS011;67556;55.656;12.590;2023-03-23T09:20:02;4.40;;;3.15;;
78298;SDS011;67556;55.656;12.590;2023-03-23T09:22:32;5.45;;;3.13;;
78298;SDS011;67556;55.656;12.590;2023-03-23T09:24:58;2.97;;;2.35;;
78298;SDS011;67556;55.656;12.590;2023-03-23T09:27:28;3.38;;;2.50;;
78298;SDS011;67556;55.656;12.590;2023-03-23T09:29:54;3.75;;;2.33;;
78298;SDS011;67556;55.656;12.590;2023-03-23T09:32:21;3.15;;;2.30;;
78298;SDS011;67556;55.656;12.590;2023-03-23T09:34:48;3.50;;;2.28;;
78298;SDS011;67556;55.656;12.590;2023-03-23T09:37:17;3.95;;;2.22;;
78298;SDS011;67556;55.656;12.590;2023-03-23T09:39:45;4.38;;;2.03;;
78298;SDS011;67556;55.656;12.590;2023-03-23T09:42:17;2.72;;;1.85;;
78298;SDS011;67556;55.656;12.590;2023-03-23T09:44:57;3.95;;;1.98;;
78298;SDS011;67556;55.656;12.590;2023-03-23T09:47:36;2.15;;;1.95;;
78298;SDS011;67556;55.656;12.590;2023-03-23T09:50:09;3.00;;;1.80;;
78298;SDS011;67556;55.656;12.590;2023-03-23T09:52:44;3.30;;;2.58;;
78298;SDS011;67556;55.656;12.590;2023-03-23T09:55:17;4.03;;;2.35;;
78298;SDS011;67556;55.656;12.590;2023-03-23T09:57:49;3.63;;;2.63;;
78298;SDS011;67556;55.656;12.590;2023-03-23T10:00:22;5.07;;;3.05;;
78298;SDS011;67556;55.656;12.590;2023-03-23T10:02:55;5.32;;;2.78;;
78298;SDS011;67556;55.656;12.590;2023-03-23T10:05:29;7.05;;;2.97;;
78298;SDS011;67556;55.656;12.590;2023-03-23T10:08:00;6.43;;;3.38;;
78298;SDS011;67556;55.656;12.590;2023-03-23T10:10:31;6.65;;;3.45;;
78298;SDS011;67556;55.656;12.590;2023-03-23T10:13:05;5.55;;;3.70;;
78298;SDS011;67556;55.656;12.590;2023-03-23T10:15:41;4.60;;;4.10;;
78298;SDS011;67556;55.656;12.590;2023-03-23T10:18:12;7.38;;;4.70;;
78298;SDS011;67556;55.656;12.590;2023-03-23T10:20:48;5.88;;;4.10;;
78298;SDS011;67556;55.656;12.590;2023-03-23T10:26:25;4.90;;;4.05;;
78298;SDS011;67556;55.656;12.590;2023-03-23T10:28:59;5.13;;;3.40;;
78298;SDS011;67556;55.656;12.590;2023-03-23T10:31:35;4.63;;;3.40;;
78298;SDS011;67556;55.656;12.590;2023-03-23T10:34:08;6.47;;;4.50;;
78298;SDS011;67556;55.656;12.590;2023-03-23T10:36:48;7.57;;;4.40;;
78298;SDS011;67556;55.656;12.590;2023-03-23T10:39:21;9.50;;;4.22;;
78298;SDS011;67556;55.656;12.590;2023-03-23T10:41:49;6.97;;;4.53;;
78298;SDS011;67556;55.656;12.590;2023-03-23T10:44:18;10.05;;;5.30;;
78298;SDS011;67556;55.656;12.590;2023-03-23T10:46:48;6.50;;;5.10;;
78298;SDS011;67556;55.656;12.590;2023-03-23T10:49:21;8.98;;;5.63;;
78298;SDS011;67556;55.656;12.590;2023-03-23T10:51:59;6.45;;;5.53;;
78298;SDS011;67556;55.656;12.590;2023-03-23T10:54:35;7.93;;;5.43;;
78298;SDS011;67556;55.656;12.590;2023-03-23T10:57:12;9.77;;;5.95;;
78298;SDS011;67556;55.656;12.590;2023-03-23T10:59:40;7.65;;;5.63;;
78298;SDS011;67556;55.656;12.590;2023-03-23T11:02:08;7.95;;;5.43;;
78298;SDS011;67556;55.656;12.590;2023-03-23T11:04:44;11.07;;;6.40;;
78298;SDS011;67556;55.656;12.590;2023-03-23T11:07:13;7.93;;;5.30;;
78298;SDS011;67556;55.656;12.590;2023-03-23T11:09:52;8.30;;;5.50;;
78298;SDS011;67556;55.656;12.590;2023-03-23T11:12:20;7.45;;;4.30;;
78298;SDS011;67556;55.656;12.590;2023-03-23T11:14:48;7.97;;;4.22;;
78298;SDS011;67556;55.656;12.590;2023-03-23T11:17:22;6.68;;;3.17;;
78298;SDS011;67556;55.656;12.590;2023-03-23T11:19:50;4.68;;;2.85;;
78298;SDS011;67556;55.656;12.590;2023-03-23T11:22:19;4.38;;;3.00;;
78298;SDS011;67556;55.656;12.590;2023-03-23T11:24:51;4.18;;;2.65;;
78298;SDS011;67556;55.656;12.590;2023-03-23T11:27:21;7.20;;;3.00;;
78298;SDS011;67556;55.656;12.590;2023-03-23T11:29:50;4.75;;;2.58;;
78298;SDS011;67556;55.656;12.590;2023-03-23T11:32:21;4.13;;;2.83;;
78298;SDS011;67556;55.656;12.590;2023-03-23T11:34:53;6.18;;;3.90;;
78298;SDS011;67556;55.656;12.590;2023-03-23T11:37:24;4.80;;;3.35;;
78298;SDS011;67556;55.656;12.590;2023-03-23T11:39:59;5.13;;;2.80;;
78298;SDS011;67556;55.656;12.590;2023-03-23T11:42:34;6.55;;;2.63;;
78298;SDS011;67556;55.656;12.590;2023-03-23T11:45:13;5.45;;;2.60;;
78298;SDS011;67556;55.656;12.590;2023-03-23T11:47:43;5.80;;;2.40;;
78298;SDS011;67556;55.656;12.590;2023-03-23T11:50:17;5.15;;;2.47;;
78298;SDS011;67556;55.656;12.590;2023-03-23T11:52:47;6.18;;;2.30;;
78298;SDS011;67556;55.656;12.590;2023-03-23T11:55:20;5.80;;;2.50;;
78298;SDS011;67556;55.656;12.590;2023-03-23T11:57:49;9.48;;;2.97;;
78298;SDS011;67556;55.656;12.590;2023-03-23T12:00:16;8.80;;;2.60;;
78298;SDS011;67556;55.656;12.590;2023-03-23T12:05:53;6.60;;;2.70;;
78298;SDS011;67556;55.656;12.590;2023-03-23T12:08:42;6.90;;;2.63;;
78298;SDS011;67556;55.656;12.590;2023-03-23T12:11:21;7.85;;;2.53;;
78298;SDS011;67556;55.656;12.590;2023-03-23T12:13:56;6.95;;;2.53;;
78298;SDS011;67556;55.656;12.590;2023-03-23T12:16:36;7.70;;;2.90;;
78298;SDS011;67556;55.656;12.590;2023-03-23T12:19:14;8.45;;;2.55;;
78298;SDS011;67556;55.656;12.590;2023-03-23T12:21:50;11.05;;;2.63;;
78298;SDS011;67556;55.656;12.590;2023-03-23T12:24:26;6.78;;;2.83;;
78298;SDS011;67556;55.656;12.590;2023-03-23T12:27:05;7.75;;;2.75;;
78298;SDS011;67556;55.656;12.590;2023-03-23T12:29:47;7.28;;;3.10;;
78298;SDS011;67556;55.656;12.590;2023-03-23T12:32:36;7.40;;;2.75;;
78298;SDS011;67556;55.656;12.590;2023-03-23T12:35:23;10.65;;;3.22;;
78298;SDS011;67556;55.656;12.590;2023-03-23T12:38:09;7.82;;;2.60;;
78298;SDS011;67556;55.656;12.590;2023-03-23T12:40:59;7.40;;;2.95;;
78298;SDS011;67556;55.656;12.590;2023-03-23T12:43:36;9.75;;;3.58;;
78298;SDS011;67556;55.656;12.590;2023-03-23T12:46:14;7.57;;;2.60;;
78298;SDS011;67556;55.656;12.590;2023-03-23T12:48:54;8.82;;;2.80;;
78298;SDS011;67556;55.656;12.590;2023-03-23T12:51:27;9.02;;;2.63;;
78298;SDS011;67556;55.656;12.590;2023-03-23T12:54:02;12.07;;;3.40;;
78298;SDS011;67556;55.656;12.590;2023-03-23T12:56:37;9.50;;;3.88;;
78298;SDS011;67556;55.656;12.590;2023-03-23T12:59:12;8.80;;;2.83;;
78298;SDS011;67556;55.656;12.590;2023-03-23T13:04:15;15.88;;;3.50;;
78298;SDS011;67556;55.656;12.590;2023-03-23T13:06:46;9.13;;;3.35;;
78298;SDS011;67556;55.656;12.590;2023-03-23T13:09:14;9.68;;;4.60;;
78298;SDS011;67556;55.656;12.590;2023-03-23T13:11:47;12.98;;;3.10;;
78298;SDS011;67556;55.656;12.590;2023-03-23T13:14:21;10.82;;;2.88;;
78298;SDS011;67556;55.656;12.590;2023-03-23T13:17:01;8.43;;;2.70;;
78298;SDS011;67556;55.656;12.590;2023-03-23T13:19:50;7.40;;;2.92;;
78298;SDS011;67556;55.656;12.590;2023-03-23T13:22:26;6.63;;;2.22;;
78298;SDS011;67556;55.656;12.590;2023-03-23T13:24:59;7.15;;;2.63;;
78298;SDS011;67556;55.656;12.590;2023-03-23T13:27:28;6.28;;;2.30;;
78298;SDS011;67556;55.656;12.590;2023-03-23T13:29:57;10.73;;;3.00;;
78298;SDS011;67556;55.656;12.590;2023-03-23T13:32:30;10.15;;;2.95;;
78298;SDS011;67556;55.656;12.590;2023-03-23T13:35:03;6.65;;;2.63;;
78298;SDS011;67556;55.656;12.590;2023-03-23T13:37:32;8.65;;;2.15;;
78298;SDS011;67556;55.656;12.590;2023-03-23T13:40:00;10.23;;;2.70;;
78298;SDS011;67556;55.656;12.590;2023-03-23T13:42:47;11.05;;;2.70;;
78298;SDS011;67556;55.656;12.590;2023-03-23T13:45:21;7.22;;;2.40;;
78298;SDS011;67556;55.656;12.590;2023-03-23T13:47:50;11.02;;;2.83;;
78298;SDS011;67556;55.656;12.590;2023-03-23T13:50:30;6.75;;;2.30;;
78298;SDS011;67556;55.656;12.590;2023-03-23T13:52:58;8.27;;;2.20;;
78298;SDS011;67556;55.656;12.590;2023-03-23T13:55:30;7.88;;;2.28;;
78298;SDS011;67556;55.656;12.590;2023-03-23T13:58:11;5.13;;;2.47;;
78298;SDS011;67556;55.656;12.590;2023-03-23T14:00:49;8.85;;;2.75;;
78298;SDS011;67556;55.656;12.590;2023-03-23T14:03:31;8.27;;;2.30;;
78298;SDS011;67556;55.656;12.590;2023-03-23T14:06:03;7.43;;;2.17;;
78298;SDS011;67556;55.656;12.590;2023-03-23T14:08:38;7.43;;;2.83;;
78298;SDS011;67556;55.656;12.590;2023-03-23T14:11:11;7.32;;;2.17;;
78298;SDS011;67556;55.656;12.590;2023-03-23T14:13:43;5.82;;;2.00;;
78298;SDS011;67556;55.656;12.590;2023-03-23T14:16:15;6.70;;;2.55;;
78298;SDS011;67556;55.656;12.590;2023-03-23T14:18:48;7.32;;;2.13;;
78298;SDS011;67556;55.656;12.590;2023-03-23T14:21:21;5.93;;;2.13;;
78298;SDS011;67556;55.656;12.590;2023-03-23T14:23:52;6.97;;;2.28;;
78298;SDS011;67556;55.656;12.590;2023-03-23T14:26:20;6.65;;;2.70;;
78298;SDS011;67556;55.656;12.590;2023-03-23T14:28:49;7.25;;;2.33;;
78298;SDS011;67556;55.656;12.590;2023-03-23T14:31:18;7.13;;;2.28;;
78298;SDS011;67556;55.656;12.590;2023-03-23T14:33:46;7.57;;;2.05;;
78298;SDS011;67556;55.656;12.590;2023-03-23T14:36:14;7.00;;;2.60;;
78298;SDS011;67556;55.656;12.590;2023-03-23T14:38:45;8.15;;;3.47;;
78298;SDS011;67556;55.656;12.590;2023-03-23T14:41:11;11.82;;;3.03;;
78298;SDS011;67556;55.656;12.590;2023-03-23T14:43:38;7.88;;;2.85;;
78298;SDS011;67556;55.656;12.590;2023-03-23T14:46:06;9.07;;;2.53;;
78298;SDS011;67556;55.656;12.590;2023-03-23T14:48:36;6.72;;;2.80;;
78298;SDS011;67556;55.656;12.590;2023-03-23T14:51:04;6.60;;;2.30;;
78298;SDS011;67556;55.656;12.590;2023-03-23T14:53:33;7.68;;;2.55;;